Time;durP1;ratioP1;P1;durP2;ratioP2;P2;SDS_P1;SDS_P2;PMS_P1;PMS_P2;Temp;Humidity;BMP_temperature;BMP_pressure;BME280_temperature;BME280_humidity;BME280_pressure;Samples;Min_cycle;Max_cycle;Signal;HPM_P1;HPM_P2
2023/01/06 00:02:10;;;;;;;13.38;4.47;;;;;;;;;;4438018;32;20068;-71
2023/01/06 00:04:35;;;;;;;;;;;;;;;;;;4438272;32;20021;-71
2023/01/06 00:07:00;;;;;;;11.68;4.45;;;;;;;;;;4423086;32;19952;-71
2023/01/06 00:09:25;;;;;;;;;;;;;;;;;;4436757;32;20140;-71
2023/01/06 00:11:50;;;;;;;12.25;4.65;;;;;;;;;;4437406;32;19947;-71
2023/01/06 00:14:16;;;;;;;9.80;4.32;;;;;;;;;;4445138;32;20025;-72
2023/01/06 00:16:41;;;;;;;9.07;5.00;;;;;;;;;;4452073;32;20041;-72
2023/01/06 00:19:06;;;;;;;;;;;;;;;;;;4427732;32;20456;-72
2023/01/06 00:21:31;;;;;;;10.05;5.45;;;;;;;;;;4436278;32;19933;-71
2023/01/06 00:23:56;;;;;;;12.95;4.75;;;;;;;;;;4438556;32;20077;-71
2023/01/06 00:26:21;;;;;;;9.38;5.03;;;;;;;;;;4437709;32;20475;-71
2023/01/06 00:28:47;;;;;;;11.70;4.40;;;;;;;;;;4436112;32;20055;-71
2023/01/06 00:31:13;;;;;;;14.35;4.72;;;;;;;;;;4436634;32;20026;-70
2023/01/06 00:33:39;;;;;;;10.40;4.07;;;;;;;;;;4435796;32;20120;-71
2023/01/06 00:36:04;;;;;;;;;;;;;;;;;;4435991;32;20022;-70
2023/01/06 00:38:29;;;;;;;11.45;4.15;;;;;;;;;;4437708;32;20006;-70
2023/01/06 00:40:55;;;;;;;;;;;;;;;;;;4436346;32;20116;-70
2023/01/06 00:43:20;;;;;;;14.77;4.97;;;;;;;;;;4435901;32;19994;-70
2023/01/06 00:45:45;;;;;;;14.02;4.25;;;;;;;;;;4436515;32;20021;-71
2023/01/06 00:48:10;;;;;;;10.93;4.37;;;;;;;;;;4436224;32;20018;-71
2023/01/06 00:50:35;;;;;;;9.48;3.80;;;;;;;;;;4436079;32;20440;-70
2023/01/06 00:53:01;;;;;;;11.20;4.57;;;;;;;;;;4421867;32;20033;-71
2023/01/06 00:55:26;;;;;;;11.23;3.87;;;;;;;;;;4436074;32;20018;-70
2023/01/06 00:57:51;;;;;;;;;;;;;;;;;;4435834;32;20026;-71
2023/01/06 01:00:16;;;;;;;8.65;3.47;;;;;;;;;;4437325;32;19932;-72
2023/01/06 01:02:42;;;;;;;11.25;3.95;;;;;;;;;;4435224;32;20049;-71
2023/01/06 01:05:07;;;;;;;;;;;;;;;;;;4437368;32;20327;-72
2023/01/06 01:07:32;;;;;;;7.25;3.97;;;;;;;;;;4436477;32;19941;-71
2023/01/06 01:09:57;;;;;;;;;;;;;;;;;;4435671;32;20022;-70
2023/01/06 01:12:22;;;;;;;10.32;3.92;;;;;;;;;;4435547;32;19937;-71
2023/01/06 01:14:47;;;;;;;;;;;;;;;;;;4423333;32;20462;-70
2023/01/06 01:17:20;;;;;;;10.38;3.62;;;;;;;;;;4436788;32;19968;-71
2023/01/06 01:19:45;;;;;;;8.30;4.10;;;;;;;;;;4437326;32;20127;-70
2023/01/06 01:22:11;;;;;;;;;;;;;;;;;;4435471;32;20457;-70
2023/01/06 01:24:36;;;;;;;6.37;3.40;;;;;;;;;;4423512;32;19977;-72
2023/01/06 01:27:01;;;;;;;;;;;;;;;;;;4439027;32;20105;-72
2023/01/06 01:29:27;;;;;;;11.60;3.87;;;;;;;;;;4439221;32;19951;-71
2023/01/06 01:31:52;;;;;;;10.60;3.65;;;;;;;;;;4438647;32;20037;-71
2023/01/06 01:34:18;;;;;;;12.65;4.00;;;;;;;;;;4440889;32;20096;-72
2023/01/06 01:36:43;;;;;;;;;;;;;;;;;;4451307;32;20054;-71
2023/01/06 01:39:08;;;;;;;11.38;3.60;;;;;;;;;;4440418;32;19948;-71
2023/01/06 01:41:33;;;;;;;;;;;;;;;;;;4441645;32;20105;-71
2023/01/06 01:44:00;;;;;;;11.55;4.70;;;;;;;;;;4439323;32;19977;-71
2023/01/06 01:46:29;;;;;;;7.55;3.42;;;;;;;;;;4438553;32;20034;-73
2023/01/06 01:48:56;;;;;;;11.20;3.25;;;;;;;;;;4438950;32;20055;-72
2023/01/06 01:51:24;;;;;;;7.80;3.45;;;;;;;;;;4427716;32;20427;-72
2023/01/06 01:53:52;;;;;;;6.70;3.15;;;;;;;;;;4439236;32;20026;-71
2023/01/06 01:56:20;;;;;;;11.82;4.07;;;;;;;;;;4439726;32;20074;-70
2023/01/06 01:58:51;;;;;;;6.72;3.17;;;;;;;;;;4439471;32;20025;-71
2023/01/06 02:01:17;;;;;;;8.82;2.90;;;;;;;;;;4438719;32;20405;-71
2023/01/06 02:03:42;;;;;;;;;;;;;;;;;;4440010;32;20434;-70
2023/01/06 02:06:11;;;;;;;7.97;3.37;;;;;;;;;;4439061;32;19940;-70
2023/01/06 02:08:36;;;;;;;8.93;3.62;;;;;;;;;;4437906;32;20163;-70
2023/01/06 02:11:01;;;;;;;;;;;;;;;;;;4439193;32;20030;-70
2023/01/06 02:13:26;;;;;;;10.27;3.37;;;;;;;;;;4437709;32;19940;-70
2023/01/06 02:15:56;;;;;;;9.90;3.00;;;;;;;;;;4439079;32;20086;-71
2023/01/06 02:18:31;;;;;;;10.02;2.95;;;;;;;;;;4423803;32;20093;-71
2023/01/06 02:21:08;;;;;;;7.90;2.92;;;;;;;;;;4439680;32;20034;-70
2023/01/06 02:23:52;;;;;;;7.90;3.17;;;;;;;;;;4424667;32;20104;-70
2023/01/06 02:26:30;;;;;;;8.32;2.75;;;;;;;;;;4439476;32;20056;-71
2023/01/06 02:28:58;;;;;;;8.70;3.12;;;;;;;;;;4438025;32;20037;-71
2023/01/06 02:31:41;;;;;;;5.70;2.72;;;;;;;;;;4437224;32;20354;-71
2023/01/06 02:34:25;;;;;;;12.65;2.83;;;;;;;;;;4438217;32;20025;-71
2023/01/06 02:36:59;;;;;;;6.28;2.50;;;;;;;;;;4437578;32;20029;-70
2023/01/06 02:39:24;;;;;;;7.32;2.22;;;;;;;;;;4439379;32;20078;-71
2023/01/06 02:41:50;;;;;;;;;;;;;;;;;;4437760;32;20048;-70
2023/01/06 02:44:38;;;;;;;4.60;2.72;;;;;;;;;;4438860;32;19960;-71
2023/01/06 02:47:06;;;;;;;9.13;2.40;;;;;;;;;;4415503;32;20510;-70
2023/01/06 02:49:40;;;;;;;11.05;2.62;;;;;;;;;;4437357;32;20094;-70
2023/01/06 02:52:16;;;;;;;13.75;2.65;;;;;;;;;;4438180;32;20026;-70
2023/01/06 02:54:54;;;;;;;9.98;2.25;;;;;;;;;;4438567;32;20045;-71
2023/01/06 02:57:19;;;;;;;7.07;2.10;;;;;;;;;;4441673;32;20026;-70
2023/01/06 02:59:44;;;;;;;;;;;;;;;;;;4440839;32;20067;-70
2023/01/06 03:02:10;;;;;;;5.95;2.20;;;;;;;;;;4445217;32;19960;-71
2023/01/06 03:04:42;;;;;;;5.85;2.00;;;;;;;;;;4437215;32;20433;-72
2023/01/06 03:07:08;;;;;;;8.63;1.73;;;;;;;;;;4437322;32;20021;-71
2023/01/06 03:09:35;;;;;;;6.62;1.83;;;;;;;;;;4436902;32;20061;-71
2023/01/06 03:12:05;;;;;;;8.05;1.90;;;;;;;;;;4424602;32;20085;-71
2023/01/06 03:14:50;;;;;;;9.05;2.10;;;;;;;;;;4438903;32;20104;-71
2023/01/06 03:17:15;;;;;;;8.75;1.73;;;;;;;;;;4424332;32;20051;-70
2023/01/06 03:19:40;;;;;;;;;;;;;;;;;;4438294;32;20395;-71
2023/01/06 03:22:06;;;;;;;8.73;2.00;;;;;;;;;;4437831;32;19937;-71
2023/01/06 03:24:33;;;;;;;8.98;1.98;;;;;;;;;;4436632;32;20030;-70
2023/01/06 03:26:59;;;;;;;3.12;1.80;;;;;;;;;;4436861;32;20026;-70
2023/01/06 03:29:24;;;;;;;;;;;;;;;;;;4439387;32;20101;-70
2023/01/06 03:32:08;;;;;;;6.20;1.90;;;;;;;;;;4439108;32;19933;-71
2023/01/06 03:34:40;;;;;;;7.22;1.60;;;;;;;;;;4423857;32;20061;-71
2023/01/06 03:37:12;;;;;;;3.97;1.80;;;;;;;;;;4436980;32;20396;-70
2023/01/06 03:39:56;;;;;;;4.03;2.03;;;;;;;;;;4438694;32;20053;-71
2023/01/06 03:45:34;;;;;;;7.43;2.25;;;;;;;;;;4415815;32;20391;-70
2023/01/06 03:48:00;;;;;;;7.45;1.80;;;;;;;;;;4435907;32;20097;-71
2023/01/06 03:50:25;;;;;;;;;;;;;;;;;;4437295;32;20384;-71
2023/01/06 03:52:56;;;;;;;5.07;1.95;;;;;;;;;;4438062;32;19937;-72
2023/01/06 03:55:24;;;;;;;7.15;2.03;;;;;;;;;;4437796;32;20166;-72
2023/01/06 03:57:51;;;;;;;4.75;1.95;;;;;;;;;;4422669;32;20482;-72
2023/01/06 04:00:21;;;;;;;7.97;2.20;;;;;;;;;;4438717;32;20034;-72
2023/01/06 04:02:46;;;;;;;6.32;2.58;;;;;;;;;;4440620;32;20097;-72
2023/01/06 04:05:11;;;;;;;;;;;;;;;;;;4439154;32;20052;-72
2023/01/06 04:07:38;;;;;;;4.37;2.28;;;;;;;;;;4436916;32;19933;-72
2023/01/06 04:10:03;;;;;;;6.03;2.10;;;;;;;;;;4438279;32;20179;-71
2023/01/06 04:12:38;;;;;;;;;;;;;;;;;;4438598;32;20426;-72
2023/01/06 04:15:04;;;;;;;4.65;1.65;;;;;;;;;;4438909;32;20302;-70
2023/01/06 04:17:29;;;;;;;6.32;2.53;;;;;;;;;;4441848;32;20025;-69
2023/01/06 04:19:54;;;;;;;;;;;;;;;;;;4449351;32;20010;-73
2023/01/06 04:22:19;;;;;;;12.73;3.50;;;;;;;;;;4451815;32;19955;-72
2023/01/06 04:24:44;;;;;;;9.13;2.97;;;;;;;;;;4441606;32;20029;-71
2023/01/06 04:27:10;;;;;;;5.07;2.42;;;;;;;;;;4423831;32;20029;-71
2023/01/06 04:29:35;;;;;;;;;;;;;;;;;;4437152;32;20400;-72
2023/01/06 04:32:00;;;;;;;5.97;2.30;;;;;;;;;;4435884;32;19937;-71
2023/01/06 04:34:25;;;;;;;13.70;2.53;;;;;;;;;;4435702;32;20052;-71
2023/01/06 04:36:50;;;;;;;6.37;2.10;;;;;;;;;;4437723;32;20030;-72
2023/01/06 04:39:15;;;;;;;;;;;;;;;;;;4436407;32;20026;-71
2023/01/06 04:41:41;;;;;;;6.07;2.08;;;;;;;;;;4436097;32;19933;-71
2023/01/06 04:44:06;;;;;;;;;;;;;;;;;;4437696;32;20635;-71
2023/01/06 04:46:31;;;;;;;4.97;1.98;;;;;;;;;;4436957;32;19971;-70
2023/01/06 04:48:56;;;;;;;;;;;;;;;;;;4436599;32;20099;-71
2023/01/06 04:51:22;;;;;;;9.25;2.20;;;;;;;;;;4436745;32;19948;-72
2023/01/06 04:53:47;;;;;;;7.03;2.28;;;;;;;;;;4437518;32;20113;-71
2023/01/06 04:56:12;;;;;;;6.35;2.10;;;;;;;;;;4437443;32;20407;-71
2023/01/06 04:58:37;;;;;;;;;;;;;;;;;;4438993;32;20056;-71
2023/01/06 05:01:04;;;;;;;4.97;2.05;;;;;;;;;;4441083;32;19937;-71
2023/01/06 05:03:29;;;;;;;6.00;2.35;;;;;;;;;;4443006;32;20057;-72
2023/01/06 05:05:54;;;;;;;;;;;;;;;;;;4440853;32;20057;-72
2023/01/06 05:08:20;;;;;;;9.77;3.40;;;;;;;;;;4439750;32;19966;-72
2023/01/06 05:10:45;;;;;;;;;;;;;;;;;;4439407;32;20173;-72
2023/01/06 05:13:10;;;;;;;7.20;2.60;;;;;;;;;;4438781;32;19945;-73
2023/01/06 05:15:37;;;;;;;7.20;2.60;;;;;;;;;;4440459;32;20327;-74
2023/01/06 05:18:02;;;;;;;6.03;2.65;;;;;;;;;;4438255;32;20056;-72
2023/01/06 05:20:27;;;;;;;;;;;;;;;;;;4438953;32;20026;-71
2023/01/06 05:22:52;;;;;;;10.20;3.97;;;;;;;;;;4438445;32;20311;-73
2023/01/06 05:25:18;;;;;;;10.73;4.68;;;;;;;;;;4439110;32;20138;-75
2023/01/06 05:27:43;;;;;;;7.05;3.37;;;;;;;;;;4439093;32;20080;-72
2023/01/06 05:30:08;;;;;;;;;;;;;;;;;;4440840;32;20026;-72
2023/01/06 05:32:33;;;;;;;5.68;3.45;;;;;;;;;;4439211;32;19953;-72
2023/01/06 05:34:59;;;;;;;8.45;3.47;;;;;;;;;;4438300;32;20106;-73
2023/01/06 05:37:24;;;;;;;;;;;;;;;;;;4438753;32;20094;-72
2023/01/06 05:39:49;;;;;;;9.85;4.45;;;;;;;;;;4440094;32;19981;-72
2023/01/06 05:42:15;;;;;;;3.08;2.50;;;;;;;;;;4441635;32;20072;-73
2023/01/06 05:44:40;;;;;;;;;;;;;;;;;;4438145;32;20006;-72
2023/01/06 05:47:05;;;;;;;14.18;5.12;;;;;;;;;;4443501;32;19932;-72
2023/01/06 05:49:30;;;;;;;;;;;;;;;;;;4438500;32;20148;-73
2023/01/06 05:51:55;;;;;;;14.50;4.45;;;;;;;;;;4438403;32;19965;-72
2023/01/06 05:54:21;;;;;;;;;;;;;;;;;;4439959;32;20178;-73
2023/01/06 05:56:46;;;;;;;7.03;3.85;;;;;;;;;;4438347;32;19952;-73
2023/01/06 05:59:11;;;;;;;;;;;;;;;;;;4438849;32;20108;-71
2023/01/06 06:01:36;;;;;;;9.00;4.07;;;;;;;;;;4439063;32;19943;-71
2023/01/06 06:04:01;;;;;;;7.12;3.90;;;;;;;;;;4425474;32;20104;-71
2023/01/06 06:06:26;;;;;;;;;;;;;;;;;;4438210;32;20022;-71
2023/01/06 06:08:52;;;;;;;7.65;3.40;;;;;;;;;;4437920;32;19933;-71
2023/01/06 06:11:18;;;;;;;9.55;4.72;;;;;;;;;;4437539;32;20018;-72
2023/01/06 06:13:52;;;;;;;8.40;4.05;;;;;;;;;;4439505;32;20029;-71
2023/01/06 06:16:19;;;;;;;15.77;5.72;;;;;;;;;;4440708;32;20100;-72
2023/01/06 06:18:47;;;;;;;13.80;6.80;;;;;;;;;;4425417;32;20482;-71
2023/01/06 06:21:14;;;;;;;10.95;4.85;;;;;;;;;;4438509;32;20427;-72
2023/01/06 06:23:39;;;;;;;12.60;5.22;;;;;;;;;;4438033;32;20026;-70
2023/01/06 06:26:04;;;;;;;;;;;;;;;;;;4437674;32;20072;-71
2023/01/06 06:28:30;;;;;;;12.00;6.06;;;;;;;;;;4432484;32;19933;-71
2023/01/06 06:31:02;;;;;;;15.05;6.62;;;;;;;;;;4429851;32;20056;-70
2023/01/06 06:33:27;;;;;;;13.88;7.43;;;;;;;;;;4439367;32;20048;-71
2023/01/06 06:35:52;;;;;;;;;;;;;;;;;;4439193;32;20425;-71
2023/01/06 06:38:17;;;;;;;13.27;7.20;;;;;;;;;;4437895;32;20004;-71
2023/01/06 06:40:43;;;;;;;12.13;5.35;;;;;;;;;;4437464;32;20021;-70
2023/01/06 06:43:08;;;;;;;9.48;6.00;;;;;;;;;;4437203;32;20109;-71
2023/01/06 06:45:34;;;;;;;;;;;;;;;;;;4425135;32;20053;-72
2023/01/06 06:47:59;;;;;;;8.25;5.22;;;;;;;;;;4425501;32;19943;-72
2023/01/06 06:50:24;;;;;;;6.53;4.82;;;;;;;;;;4421382;32;20399;-71
2023/01/06 06:52:49;;;;;;;;;;;;;;;;;;4422251;32;20018;-72
2023/01/06 06:55:14;;;;;;;9.23;5.57;;;;;;;;;;4411400;32;19980;-72
2023/01/06 06:57:39;;;;;;;6.47;5.75;;;;;;;;;;4436828;32;20084;-72
2023/01/06 07:00:04;;;;;;;;;;;;;;;;;;4437607;32;20051;-73
2023/01/06 07:02:30;;;;;;;6.43;4.55;;;;;;;;;;4438859;32;19951;-72
2023/01/06 07:04:55;;;;;;;5.78;4.28;;;;;;;;;;4438384;32;20086;-72
2023/01/06 07:07:20;;;;;;;;;;;;;;;;;;4450601;32;20007;-71
2023/01/06 07:09:46;;;;;;;10.30;5.25;;;;;;;;;;4440178;32;19952;-72
2023/01/06 07:12:11;;;;;;;9.43;5.93;;;;;;;;;;4437187;32;20407;-72
2023/01/06 07:14:36;;;;;;;;;;;;;;;;;;4438225;32;20049;-71
2023/01/06 07:17:02;;;;;;;10.23;5.18;;;;;;;;;;4437805;32;19940;-72
2023/01/06 07:19:27;;;;;;;;;;;;;;;;;;4438601;32;20048;-72
2023/01/06 07:21:52;;;;;;;9.52;4.55;;;;;;;;;;4436028;32;19960;-72
2023/01/06 07:24:17;;;;;;;;;;;;;;;;;;4437477;32;20081;-73
2023/01/06 07:26:42;;;;;;;8.07;3.15;;;;;;;;;;4435974;32;19981;-72
2023/01/06 07:29:07;;;;;;;10.55;3.65;;;;;;;;;;4436510;32;20355;-72
2023/01/06 07:31:32;;;;;;;10.27;2.42;;;;;;;;;;4437727;32;20049;-73
2023/01/06 07:33:58;;;;;;;6.53;2.30;;;;;;;;;;4437063;32;20048;-73
2023/01/06 07:36:23;;;;;;;;;;;;;;;;;;4438135;32;20110;-73
2023/01/06 07:38:48;;;;;;;12.02;2.28;;;;;;;;;;4436911;32;20208;-73
2023/01/06 07:41:13;;;;;;;15.35;3.50;;;;;;;;;;4437907;32;20129;-73
2023/01/06 07:43:38;;;;;;;11.98;3.05;;;;;;;;;;4437342;32;20018;-73
2023/01/06 07:46:04;;;;;;;;;;;;;;;;;;4436914;32;20060;-72
2023/01/06 07:48:29;;;;;;;19.12;4.22;;;;;;;;;;4436891;32;19947;-72
2023/01/06 07:50:56;;;;;;;14.20;3.33;;;;;;;;;;4437313;32;20022;-73
2023/01/06 07:53:21;;;;;;;10.75;2.90;;;;;;;;;;4437985;32;20046;-73
2023/01/06 07:55:46;;;;;;;;;;;;;;;;;;4436390;32;20068;-72
2023/01/06 07:58:11;;;;;;;21.65;4.35;;;;;;;;;;4436349;32;20289;-72
2023/01/06 08:00:36;;;;;;;24.02;4.18;;;;;;;;;;4436477;32;20021;-72
2023/01/06 08:03:01;;;;;;;;;;;;;;;;;;4422563;32;20029;-72
2023/01/06 08:05:27;;;;;;;27.10;4.70;;;;;;;;;;4438093;32;19932;-71
2023/01/06 08:07:52;;;;;;;;;;;;;;;;;;4438550;32;20139;-71
2023/01/06 08:10:17;;;;;;;22.70;4.47;;;;;;;;;;4437797;32;19948;-73
2023/01/06 08:12:42;;;;;;;;;;;;;;;;;;4437462;32;20048;-73
2023/01/06 08:15:07;;;;;;;20.55;5.97;;;;;;;;;;4436081;32;19932;-72
2023/01/06 08:17:32;;;;;;;23.27;3.87;;;;;;;;;;4421976;32;20026;-72
2023/01/06 08:19:58;;;;;;;;;;;;;;;;;;4436273;32;20436;-71
2023/01/06 08:22:23;;;;;;;17.02;3.83;;;;;;;;;;4435854;32;19969;-72
2023/01/06 08:24:48;;;;;;;;;;;;;;;;;;4424036;32;20139;-72
2023/01/06 08:27:13;;;;;;;19.30;3.95;;;;;;;;;;4431673;32;19941;-72
2023/01/06 08:29:38;;;;;;;20.88;4.95;;;;;;;;;;4437010;32;20040;-70
2023/01/06 08:32:03;;;;;;;;;;;;;;;;;;4440606;32;20081;-72
2023/01/06 08:34:29;;;;;;;22.90;4.82;;;;;;;;;;4437038;32;19997;-71
2023/01/06 08:36:54;;;;;;;;;;;;;;;;;;4436263;32;20177;-71
2023/01/06 08:39:19;;;;;;;23.75;4.65;;;;;;;;;;4435915;32;19976;-71
2023/01/06 08:41:46;;;;;;;;;;;;;;;;;;4435661;32;20129;-71
2023/01/06 08:44:11;;;;;;;18.05;3.33;;;;;;;;;;4435917;32;20199;-71
2023/01/06 08:46:36;;;;;;;;;;;;;;;;;;4435785;32;20067;-72
2023/01/06 08:49:02;;;;;;;15.88;3.47;;;;;;;;;;4421644;32;20079;-73
2023/01/06 08:51:27;;;;;;;;;;;;;;;;;;4421884;32;20128;-72
2023/01/06 08:53:53;;;;;;;17.25;4.45;;;;;;;;;;4436504;32;19945;-71
2023/01/06 08:56:18;;;;;;;;;;;;;;;;;;4437167;32;20143;-73
2023/01/06 08:58:43;;;;;;;22.15;5.53;;;;;;;;;;4437348;32;19968;-71
2023/01/06 09:01:08;;;;;;;;;;;;;;;;;;4423742;32;20148;-71
2023/01/06 09:03:33;;;;;;;18.27;3.25;;;;;;;;;;4435492;32;19983;-71
2023/01/06 09:05:58;;;;;;;;;;;;;;;;;;4437089;32;20117;-72
2023/01/06 09:08:24;;;;;;;16.65;3.20;;;;;;;;;;4435871;32;20002;-72
2023/01/06 09:10:49;;;;;;;19.27;3.78;;;;;;;;;;4423469;32;20025;-72
2023/01/06 09:13:14;;;;;;;;;;;;;;;;;;4422994;32;20359;-72
2023/01/06 09:15:40;;;;;;;17.33;2.45;;;;;;;;;;4437035;32;19985;-72
2023/01/06 09:18:07;;;;;;;;;;;;;;;;;;4436847;32;20166;-72
2023/01/06 09:20:32;;;;;;;13.93;2.65;;;;;;;;;;4422439;32;19929;-72
2023/01/06 09:22:57;;;;;;;;;;;;;;;;;;4421715;32;20075;-71
2023/01/06 09:25:22;;;;;;;16.35;3.47;;;;;;;;;;4436687;32;19933;-72
2023/01/06 09:27:48;;;;;;;17.02;4.20;;;;;;;;;;4436043;32;20017;-72
2023/01/06 09:30:13;;;;;;;15.32;2.50;;;;;;;;;;4435607;32;20478;-72
2023/01/06 09:32:38;;;;;;;;;;;;;;;;;;4437570;32;20026;-72
2023/01/06 09:35:03;;;;;;;8.15;2.12;;;;;;;;;;4435120;32;20375;-71
2023/01/06 09:37:28;;;;;;;16.87;2.33;;;;;;;;;;4437286;32;20143;-72
2023/01/06 09:39:54;;;;;;;;;;;;;;;;;;4435580;32;20477;-72
2023/01/06 09:42:28;;;;;;;13.70;2.20;;;;;;;;;;4434849;32;19937;-71
2023/01/06 09:44:55;;;;;;;15.55;2.53;;;;;;;;;;4435836;32;20033;-72
2023/01/06 09:47:21;;;;;;;12.57;2.10;;;;;;;;;;4439605;32;20090;-72
2023/01/06 09:50:05;;;;;;;7.93;2.50;;;;;;;;;;4452367;32;20017;-72
2023/01/06 09:52:33;;;;;;;9.80;2.25;;;;;;;;;;4451707;32;20026;-72
2023/01/06 09:55:04;;;;;;;9.82;2.28;;;;;;;;;;4426016;32;20029;-72
2023/01/06 09:57:45;;;;;;;10.52;2.22;;;;;;;;;;4424078;32;20052;-71
2023/01/06 10:00:10;;;;;;;8.00;1.92;;;;;;;;;;4438282;32;20030;-71
2023/01/06 10:02:35;;;;;;;;;;;;;;;;;;4438817;32;20049;-71
2023/01/06 10:05:01;;;;;;;8.90;1.98;;;;;;;;;;4438939;32;19937;-71
2023/01/06 10:07:42;;;;;;;7.57;2.05;;;;;;;;;;4438563;32;20094;-72
2023/01/06 10:10:40;;;;;;;12.32;1.73;;;;;;;;;;4425220;32;20041;-72
2023/01/06 10:13:23;;;;;;;7.22;1.65;;;;;;;;;;4394856;32;20086;-73
2023/01/06 10:15:59;;;;;;;11.10;2.58;;;;;;;;;;4438669;32;20048;-71
2023/01/06 10:18:44;;;;;;;18.83;2.37;;;;;;;;;;4438283;32;20026;-72
2023/01/06 10:21:16;;;;;;;12.30;1.80;;;;;;;;;;4438997;32;20108;-71
2023/01/06 10:23:58;;;;;;;6.43;1.70;;;;;;;;;;4437691;32;20030;-72
2023/01/06 10:26:31;;;;;;;15.38;2.08;;;;;;;;;;4438490;32;20037;-73
2023/01/06 10:29:03;;;;;;;8.55;2.15;;;;;;;;;;4438123;32;20060;-73
2023/01/06 10:31:31;;;;;;;12.23;2.53;;;;;;;;;;4439534;32;20029;-73
2023/01/06 10:33:57;;;;;;;10.98;1.87;;;;;;;;;;4439556;32;20034;-72
2023/01/06 10:36:23;;;;;;;;;;;;;;;;;;4439732;32;20064;-71
2023/01/06 10:38:49;;;;;;;11.50;2.92;;;;;;;;;;4437083;32;19937;-70
2023/01/06 10:41:17;;;;;;;10.30;2.28;;;;;;;;;;4438283;32;20074;-72
2023/01/06 10:43:42;;;;;;;9.70;2.50;;;;;;;;;;4439037;32;20036;-71
2023/01/06 10:46:08;;;;;;;;;;;;;;;;;;4437549;32;20138;-71
2023/01/06 10:48:34;;;;;;;7.72;2.37;;;;;;;;;;4436603;32;19937;-72
2023/01/06 10:50:59;;;;;;;;;;;;;;;;;;4437057;32;20494;-71
2023/01/06 10:53:24;;;;;;;17.73;2.95;;;;;;;;;;4439026;32;19978;-72
2023/01/06 10:55:50;;;;;;;;;;;;;;;;;;4438584;32;20125;-70
2023/01/06 10:58:19;;;;;;;8.20;1.85;;;;;;;;;;4424034;32;19937;-71
2023/01/06 11:00:54;;;;;;;10.20;1.83;;;;;;;;;;4423032;32;20061;-71
2023/01/06 11:03:20;;;;;;;9.97;1.80;;;;;;;;;;4437493;32;20112;-72
2023/01/06 11:05:45;;;;;;;;;;;;;;;;;;4437582;32;20038;-71
2023/01/06 11:08:12;;;;;;;11.95;2.35;;;;;;;;;;4438259;32;19933;-71
2023/01/06 11:10:49;;;;;;;7.37;1.60;;;;;;;;;;4448163;32;20110;-72
2023/01/06 11:13:24;;;;;;;5.35;1.75;;;;;;;;;;4452103;32;20091;-71
2023/01/06 11:15:49;;;;;;;6.87;1.77;;;;;;;;;;4438501;32;20425;-71
2023/01/06 11:18:14;;;;;;;;;;;;;;;;;;4437224;32;20086;-71
2023/01/06 11:20:40;;;;;;;6.82;1.80;;;;;;;;;;4436230;32;19948;-71
2023/01/06 11:23:12;;;;;;;8.35;1.98;;;;;;;;;;4423137;32;20424;-71
2023/01/06 11:25:38;;;;;;;9.77;2.12;;;;;;;;;;4438531;32;20064;-71
2023/01/06 11:28:03;;;;;;;;;;;;;;;;;;4435407;32;20201;-72
2023/01/06 11:30:28;;;;;;;5.65;1.85;;;;;;;;;;4436876;32;19993;-70
2023/01/06 11:32:53;;;;;;;;;;;;;;;;;;4436312;32;20576;-70
2023/01/06 11:35:19;;;;;;;10.57;1.67;;;;;;;;;;4437416;32;19973;-72
2023/01/06 11:37:45;;;;;;;12.02;2.00;;;;;;;;;;4421231;32;20196;-72
2023/01/06 11:40:10;;;;;;;;;;;;;;;;;;4420855;32;20029;-71
2023/01/06 11:42:35;;;;;;;8.00;2.08;;;;;;;;;;4407401;32;19951;-71
2023/01/06 11:45:00;;;;;;;;;;;;;;;;;;4423000;32;20121;-72
2023/01/06 11:47:26;;;;;;;8.20;2.33;;;;;;;;;;4433429;32;19976;-73
2023/01/06 11:49:51;;;;;;;;;;;;;;;;;;4426650;32;20208;-72
2023/01/06 11:52:16;;;;;;;9.13;2.33;;;;;;;;;;4427544;32;20353;-72
2023/01/06 11:54:41;;;;;;;11.07;2.08;;;;;;;;;;4427361;32;20026;-72
2023/01/06 11:57:25;;;;;;;9.70;3.42;;;;;;;;;;4427127;32;20030;-72
2023/01/06 12:00:09;;;;;;;10.82;2.20;;;;;;;;;;4428552;32;20443;-71
2023/01/06 12:02:41;;;;;;;9.32;2.53;;;;;;;;;;4430302;32;20524;-71
2023/01/06 12:05:14;;;;;;;11.27;2.42;;;;;;;;;;4427478;32;20089;-72
2023/01/06 12:07:46;;;;;;;9.55;2.12;;;;;;;;;;4418558;32;20079;-72
2023/01/06 12:10:17;;;;;;;15.68;3.35;;;;;;;;;;4427607;32;20118;-74
2023/01/06 12:12:42;;;;;;;7.45;2.03;;;;;;;;;;4420962;32;20419;-71
2023/01/06 12:15:08;;;;;;;;;;;;;;;;;;4428329;32;20089;-73
2023/01/06 12:17:45;;;;;;;5.82;1.70;;;;;;;;;;4427059;32;19953;-73
2023/01/06 12:20:25;;;;;;;6.37;1.90;;;;;;;;;;4427884;32;20125;-74
2023/01/06 12:22:51;;;;;;;10.52;2.17;;;;;;;;;;4426222;32;20091;-71
2023/01/06 12:25:16;;;;;;;;;;;;;;;;;;4428422;32;20062;-71
2023/01/06 12:27:44;;;;;;;14.05;1.95;;;;;;;;;;4432672;32;19980;-73
2023/01/06 12:30:14;;;;;;;8.75;2.35;;;;;;;;;;4444839;32;20036;-74
2023/01/06 12:32:42;;;;;;;6.47;1.75;;;;;;;;;;4432047;32;20078;-72
2023/01/06 12:35:10;;;;;;;8.20;3.70;;;;;;;;;;4427841;32;20034;-72
2023/01/06 12:37:44;;;;;;;6.57;2.05;;;;;;;;;;4426400;32;20070;-73
2023/01/06 12:40:19;;;;;;;11.45;2.30;;;;;;;;;;4425821;32;20056;-72
2023/01/06 12:42:44;;;;;;;9.23;2.35;;;;;;;;;;4419048;32;20464;-74
2023/01/06 12:45:23;;;;;;;8.70;2.55;;;;;;;;;;4427790;32;20033;-72
2023/01/06 12:47:52;;;;;;;5.18;2.00;;;;;;;;;;4426768;32;20035;-74
2023/01/06 12:50:36;;;;;;;7.07;2.50;;;;;;;;;;4414109;32;20037;-71
2023/01/06 12:53:01;;;;;;;6.93;1.75;;;;;;;;;;4426853;32;20063;-71
2023/01/06 12:55:32;;;;;;;7.32;2.03;;;;;;;;;;4429579;32;20034;-72
2023/01/06 12:57:57;;;;;;;10.40;2.47;;;;;;;;;;4433223;32;20058;-72
2023/01/06 13:00:22;;;;;;;10.15;2.45;;;;;;;;;;4427010;32;20021;-73
2023/01/06 13:02:54;;;;;;;10.57;1.80;;;;;;;;;;4426725;32;20065;-74
2023/01/06 13:05:26;;;;;;;6.68;2.10;;;;;;;;;;4426045;32;20348;-74
2023/01/06 13:08:11;;;;;;;4.90;1.70;;;;;;;;;;4426566;32;20076;-73
2023/01/06 13:10:36;;;;;;;6.82;2.12;;;;;;;;;;4428474;32;20065;-74
2023/01/06 13:13:20;;;;;;;7.75;2.28;;;;;;;;;;4427189;32;20076;-74
2023/01/06 13:15:45;;;;;;;10.20;2.40;;;;;;;;;;4428803;32;20065;-72
2023/01/06 13:18:16;;;;;;;8.30;2.22;;;;;;;;;;4426769;32;20046;-73
2023/01/06 13:20:43;;;;;;;11.98;2.45;;;;;;;;;;4429247;32;20083;-74
2023/01/06 13:23:08;;;;;;;8.82;2.10;;;;;;;;;;4430413;32;20056;-73
2023/01/06 13:25:33;;;;;;;;;;;;;;;;;;4421949;32;20137;-73
2023/01/06 13:27:58;;;;;;;6.97;2.12;;;;;;;;;;4432534;32;19937;-73
2023/01/06 13:30:24;;;;;;;;;;;;;;;;;;4418979;32;20169;-72
2023/01/06 13:32:49;;;;;;;4.78;1.70;;;;;;;;;;4428117;32;19933;-72
2023/01/06 13:35:32;;;;;;;3.65;1.45;;;;;;;;;;4417390;32;20104;-73
2023/01/06 13:38:00;;;;;;;10.02;1.45;;;;;;;;;;4429785;32;20199;-72
2023/01/06 13:40:28;;;;;;;5.97;1.92;;;;;;;;;;4424232;32;20049;-73
2023/01/06 13:43:04;;;;;;;8.43;1.98;;;;;;;;;;4432446;32;20041;-72
2023/01/06 13:45:31;;;;;;;5.45;1.60;;;;;;;;;;4442706;32;20055;-72
2023/01/06 13:47:58;;;;;;;8.07;1.90;;;;;;;;;;4443605;32;20096;-73
2023/01/06 13:50:25;;;;;;;8.35;1.75;;;;;;;;;;4432795;32;20099;-73
2023/01/06 13:52:50;;;;;;;15.95;3.08;;;;;;;;;;4428437;32;20045;-72
2023/01/06 13:55:15;;;;;;;;;;;;;;;;;;4429013;32;20096;-74
2023/01/06 13:57:40;;;;;;;4.68;1.83;;;;;;;;;;4430050;32;20008;-73
2023/01/06 14:00:05;;;;;;;9.68;2.03;;;;;;;;;;4429587;32;20037;-74
2023/01/06 14:02:33;;;;;;;10.75;2.00;;;;;;;;;;4428804;32;20516;-73
2023/01/06 14:05:00;;;;;;;8.52;1.55;;;;;;;;;;4428641;32;20022;-72
2023/01/06 14:07:38;;;;;;;7.18;2.22;;;;;;;;;;4415198;32;20515;-71
2023/01/06 14:10:26;;;;;;;9.15;2.80;;;;;;;;;;4426734;32;20130;-71
2023/01/06 14:12:52;;;;;;;5.12;2.17;;;;;;;;;;4429934;32;20030;-71
2023/01/06 14:15:17;;;;;;;;;;;;;;;;;;4429427;32;20113;-71
2023/01/06 14:17:45;;;;;;;7.58;2.10;;;;;;;;;;4414804;32;19959;-72
2023/01/06 14:20:24;;;;;;;9.45;2.00;;;;;;;;;;4415795;32;20390;-72
2023/01/06 14:23:08;;;;;;;7.05;1.90;;;;;;;;;;4428181;32;20130;-71
2023/01/06 14:25:38;;;;;;;3.70;1.40;;;;;;;;;;4429697;32;20070;-71
2023/01/06 14:28:05;;;;;;;7.90;1.95;;;;;;;;;;4429815;32;20419;-71
2023/01/06 14:30:31;;;;;;;9.70;3.25;;;;;;;;;;4429661;32;20042;-72
2023/01/06 14:33:21;;;;;;;5.15;1.73;;;;;;;;;;4428696;32;20029;-71
2023/01/06 14:35:47;;;;;;;9.15;2.42;;;;;;;;;;4427815;32;20034;-73
2023/01/06 14:38:12;;;;;;;;;;;;;;;;;;4427563;32;20093;-72
2023/01/06 14:40:44;;;;;;;9.25;2.05;;;;;;;;;;4427418;32;20057;-72
2023/01/06 14:43:26;;;;;;;3.67;1.95;;;;;;;;;;4428560;32;20125;-73
2023/01/06 14:45:52;;;;;;;6.85;1.70;;;;;;;;;;4417046;32;20462;-72
2023/01/06 14:48:19;;;;;;;4.32;1.70;;;;;;;;;;4430511;32;20041;-72
2023/01/06 14:50:52;;;;;;;4.40;1.35;;;;;;;;;;4428526;32;20411;-73
2023/01/06 14:53:23;;;;;;;6.78;1.85;;;;;;;;;;4429348;32;20017;-73
2023/01/06 14:55:48;;;;;;;10.38;2.80;;;;;;;;;;4428287;32;20068;-73
2023/01/06 14:58:13;;;;;;;;;;;;;;;;;;4429305;32;20371;-72
2023/01/06 15:00:44;;;;;;;10.05;2.60;;;;;;;;;;4430038;32;19950;-73
2023/01/06 15:03:22;;;;;;;5.75;2.12;;;;;;;;;;4431604;32;20037;-73
2023/01/06 15:05:47;;;;;;;11.68;3.97;;;;;;;;;;4445380;32;20070;-76
2023/01/06 15:08:12;;;;;;;;;;;;;;;;;;4435426;32;20413;-71
2023/01/06 15:10:38;;;;;;;8.68;3.10;;;;;;;;;;4427347;32;19937;-71
2023/01/06 15:13:26;;;;;;;8.50;2.50;;;;;;;;;;4428610;32;20064;-71